sensor_id;sensor_type;location;lat;lon;timestamp;P1;durP1;ratioP1;P2;durP2;ratioP2
7049;SDS011;22263;52.260;10.548;2022-07-22T00:01:54;9.20;;;8.35;;
7049;SDS011;22263;52.260;10.548;2022-07-22T00:04:25;10.15;;;7.97;;
7049;SDS011;22263;52.260;10.548;2022-07-22T00:06:55;8.50;;;7.65;;
7049;SDS011;22263;52.260;10.548;2022-07-22T00:09:24;9.52;;;8.10;;
7049;SDS011;22263;52.260;10.548;2022-07-22T00:11:57;8.05;;;7.35;;
7049;SDS011;22263;52.260;10.548;2022-07-22T00:14:26;8.75;;;7.95;;
7049;SDS011;22263;52.260;10.548;2022-07-22T00:16:56;9.13;;;8.23;;
7049;SDS011;22263;52.260;10.548;2022-07-22T00:19:25;8.38;;;7.50;;
7049;SDS011;22263;52.260;10.548;2022-07-22T00:21:55;8.70;;;7.80;;
7049;SDS011;22263;52.260;10.548;2022-07-22T00:24:24;8.80;;;8.00;;
7049;SDS011;22263;52.260;10.548;2022-07-22T00:26:56;8.65;;;7.25;;
7049;SDS011;22263;52.260;10.548;2022-07-22T00:29:26;8.52;;;7.72;;
7049;SDS011;22263;52.260;10.548;2022-07-22T00:31:55;7.88;;;7.18;;
7049;SDS011;22263;52.260;10.548;2022-07-22T00:34:24;7.85;;;7.15;;
7049;SDS011;22263;52.260;10.548;2022-07-22T00:36:54;8.35;;;7.35;;
7049;SDS011;22263;52.260;10.548;2022-07-22T00:39:23;8.50;;;7.65;;
7049;SDS011;22263;52.260;10.548;2022-07-22T00:41:53;8.93;;;8.02;;
7049;SDS011;22263;52.260;10.548;2022-07-22T00:44:25;7.75;;;6.95;;
7049;SDS011;22263;52.260;10.548;2022-07-22T00:47:03;7.20;;;6.50;;
7049;SDS011;22263;52.260;10.548;2022-07-22T00:49:33;8.30;;;7.45;;
7049;SDS011;22263;52.260;10.548;2022-07-22T00:52:02;9.32;;;8.40;;
7049;SDS011;22263;52.260;10.548;2022-07-22T00:54:33;7.75;;;6.95;;
7049;SDS011;22263;52.260;10.548;2022-07-22T00:57:02;7.97;;;7.18;;
7049;SDS011;22263;52.260;10.548;2022-07-22T00:59:35;8.52;;;7.72;;
7049;SDS011;22263;52.260;10.548;2022-07-22T01:02:04;8.52;;;7.72;;
7049;SDS011;22263;52.260;10.548;2022-07-22T01:04:34;8.38;;;7.50;;
7049;SDS011;22263;52.260;10.548;2022-07-22T01:07:03;8.10;;;7.40;;
7049;SDS011;22263;52.260;10.548;2022-07-22T01:09:33;7.72;;;6.97;;
7049;SDS011;22263;52.260;10.548;2022-07-22T01:12:03;8.27;;;7.47;;
7049;SDS011;22263;52.260;10.548;2022-07-22T01:14:35;7.93;;;7.13;;
7049;SDS011;22263;52.260;10.548;2022-07-22T01:17:05;8.00;;;7.28;;
7049;SDS011;22263;52.260;10.548;2022-07-22T01:19:35;7.40;;;6.65;;
7049;SDS011;22263;52.260;10.548;2022-07-22T01:22:07;7.70;;;7.00;;
7049;SDS011;22263;52.260;10.548;2022-07-22T01:24:37;7.38;;;6.68;;
7049;SDS011;22263;52.260;10.548;2022-07-22T01:27:06;8.60;;;7.72;;
7049;SDS011;22263;52.260;10.548;2022-07-22T01:29:36;8.90;;;7.30;;
7049;SDS011;22263;52.260;10.548;2022-07-22T01:32:05;7.20;;;6.50;;
7049;SDS011;22263;52.260;10.548;2022-07-22T01:34:35;8.27;;;7.43;;
7049;SDS011;22263;52.260;10.548;2022-07-22T01:37:04;9.23;;;7.80;;
7049;SDS011;22263;52.260;10.548;2022-07-22T01:39:36;8.80;;;7.97;;
7049;SDS011;22263;52.260;10.548;2022-07-22T01:42:06;9.13;;;8.23;;
7049;SDS011;22263;52.260;10.548;2022-07-22T01:44:35;8.35;;;7.50;;
7049;SDS011;22263;52.260;10.548;2022-07-22T01:47:05;10.23;;;8.07;;
7049;SDS011;22263;52.260;10.548;2022-07-22T01:49:34;8.88;;;7.97;;
7049;SDS011;22263;52.260;10.548;2022-07-22T01:52:04;8.50;;;7.60;;
7049;SDS011;22263;52.260;10.548;2022-07-22T01:54:36;9.73;;;8.18;;
7049;SDS011;22263;52.260;10.548;2022-07-22T01:57:09;8.38;;;7.57;;
7049;SDS011;22263;52.260;10.548;2022-07-22T01:59:38;11.27;;;8.68;;
7049;SDS011;22263;52.260;10.548;2022-07-22T02:02:07;9.45;;;8.55;;
7049;SDS011;22263;52.260;10.548;2022-07-22T02:04:37;10.50;;;8.63;;
7049;SDS011;22263;52.260;10.548;2022-07-22T02:07:06;9.02;;;8.13;;
7049;SDS011;22263;52.260;10.548;2022-07-22T02:09:38;8.93;;;8.13;;
7049;SDS011;22263;52.260;10.548;2022-07-22T02:12:08;9.27;;;8.48;;
7049;SDS011;22263;52.260;10.548;2022-07-22T02:14:37;9.40;;;8.50;;
7049;SDS011;22263;52.260;10.548;2022-07-22T02:17:07;9.57;;;8.68;;
7049;SDS011;22263;52.260;10.548;2022-07-22T02:19:36;9.73;;;8.18;;
7049;SDS011;22263;52.260;10.548;2022-07-22T02:22:06;8.73;;;7.80;;
7049;SDS011;22263;52.260;10.548;2022-07-22T02:24:38;9.32;;;8.38;;
7049;SDS011;22263;52.260;10.548;2022-07-22T02:27:08;9.18;;;8.27;;
7049;SDS011;22263;52.260;10.548;2022-07-22T02:29:37;9.82;;;8.43;;
7049;SDS011;22263;52.260;10.548;2022-07-22T02:32:07;8.90;;;8.10;;
7049;SDS011;22263;52.260;10.548;2022-07-22T02:34:36;10.55;;;8.77;;
7049;SDS011;22263;52.260;10.548;2022-07-22T02:37:06;8.98;;;8.10;;
7049;SDS011;22263;52.260;10.548;2022-07-22T02:39:38;9.32;;;8.35;;
7049;SDS011;22263;52.260;10.548;2022-07-22T02:42:08;9.38;;;8.48;;
7049;SDS011;22263;52.260;10.548;2022-07-22T02:44:37;8.60;;;7.53;;
7049;SDS011;22263;52.260;10.548;2022-07-22T02:47:07;9.55;;;8.57;;
7049;SDS011;22263;52.260;10.548;2022-07-22T02:49:36;8.95;;;8.05;;
7049;SDS011;22263;52.260;10.548;2022-07-22T02:52:05;9.63;;;8.63;;
7049;SDS011;22263;52.260;10.548;2022-07-22T02:54:35;9.57;;;8.45;;
7049;SDS011;22263;52.260;10.548;2022-07-22T02:57:07;9.27;;;8.48;;
7049;SDS011;22263;52.260;10.548;2022-07-22T02:59:36;9.32;;;8.32;;
7049;SDS011;22263;52.260;10.548;2022-07-22T03:02:06;9.52;;;8.52;;
7049;SDS011;22263;52.260;10.548;2022-07-22T03:04:35;9.00;;;8.10;;
7049;SDS011;22263;52.260;10.548;2022-07-22T03:07:04;8.75;;;7.95;;
7049;SDS011;22263;52.260;10.548;2022-07-22T03:09:34;9.77;;;8.77;;
7049;SDS011;22263;52.260;10.548;2022-07-22T03:12:03;9.05;;;8.13;;
7049;SDS011;22263;52.260;10.548;2022-07-22T03:14:35;9.93;;;8.73;;
7049;SDS011;22263;52.260;10.548;2022-07-22T03:17:05;9.40;;;7.97;;
7049;SDS011;22263;52.260;10.548;2022-07-22T03:19:34;9.75;;;8.75;;
7049;SDS011;22263;52.260;10.548;2022-07-22T03:22:04;10.93;;;9.23;;
7049;SDS011;22263;52.260;10.548;2022-07-22T03:24:34;12.32;;;10.38;;
7049;SDS011;22263;52.260;10.548;2022-07-22T03:27:03;12.05;;;10.57;;
7049;SDS011;22263;52.260;10.548;2022-07-22T03:29:35;12.68;;;11.07;;
7049;SDS011;22263;52.260;10.548;2022-07-22T03:32:05;13.20;;;10.88;;
7049;SDS011;22263;52.260;10.548;2022-07-22T03:34:34;13.15;;;11.77;;
7049;SDS011;22263;52.260;10.548;2022-07-22T03:37:04;14.32;;;12.02;;
7049;SDS011;22263;52.260;10.548;2022-07-22T03:39:33;13.98;;;12.48;;
7049;SDS011;22263;52.260;10.548;2022-07-22T03:42:03;14.23;;;12.50;;
7049;SDS011;22263;52.260;10.548;2022-07-22T03:44:32;14.40;;;12.02;;
7049;SDS011;22263;52.260;10.548;2022-07-22T03:47:04;16.23;;;12.88;;
7049;SDS011;22263;52.260;10.548;2022-07-22T03:49:37;14.45;;;11.90;;
7049;SDS011;22263;52.260;10.548;2022-07-22T03:52:06;14.48;;;11.48;;
7049;SDS011;22263;52.260;10.548;2022-07-22T03:54:35;14.25;;;10.88;;
7049;SDS011;22263;52.260;10.548;2022-07-22T03:57:05;13.85;;;11.15;;
7049;SDS011;22263;52.260;10.548;2022-07-22T03:59:34;11.27;;;10.07;;
7049;SDS011;22263;52.260;10.548;2022-07-22T04:02:06;13.55;;;10.75;;
7049;SDS011;22263;52.260;10.548;2022-07-22T04:04:36;12.02;;;8.75;;
7049;SDS011;22263;52.260;10.548;2022-07-22T04:07:05;10.38;;;9.13;;
7049;SDS011;22263;52.260;10.548;2022-07-22T04:09:35;9.65;;;8.65;;
7049;SDS011;22263;52.260;10.548;2022-07-22T04:12:05;9.82;;;8.23;;
7049;SDS011;22263;52.260;10.548;2022-07-22T04:14:34;8.60;;;7.80;;
7049;SDS011;22263;52.260;10.548;2022-07-22T04:17:06;8.82;;;7.93;;
7049;SDS011;22263;52.260;10.548;2022-07-22T04:19:41;7.97;;;7.18;;
7049;SDS011;22263;52.260;10.548;2022-07-22T04:22:10;6.65;;;6.00;;
7049;SDS011;22263;52.260;10.548;2022-07-22T04:24:39;14.18;;;12.45;;
7049;SDS011;22263;52.260;10.548;2022-07-22T04:27:09;9.52;;;8.52;;
7049;SDS011;22263;52.260;10.548;2022-07-22T04:29:38;9.15;;;7.20;;
7049;SDS011;22263;52.260;10.548;2022-07-22T04:32:10;12.13;;;9.60;;
7049;SDS011;22263;52.260;10.548;2022-07-22T04:34:40;10.90;;;8.93;;
7049;SDS011;22263;52.260;10.548;2022-07-22T04:37:09;11.48;;;7.80;;
7049;SDS011;22263;52.260;10.548;2022-07-22T04:39:39;10.60;;;7.82;;
7049;SDS011;22263;52.260;10.548;2022-07-22T04:42:08;10.15;;;7.93;;
7049;SDS011;22263;52.260;10.548;2022-07-22T04:44:38;9.40;;;6.22;;
7049;SDS011;22263;52.260;10.548;2022-07-22T04:47:07;8.15;;;6.60;;
7049;SDS011;22263;52.260;10.548;2022-07-22T04:49:39;7.45;;;5.60;;
7049;SDS011;22263;52.260;10.548;2022-07-22T04:52:09;7.68;;;5.80;;
7049;SDS011;22263;52.260;10.548;2022-07-22T04:54:39;8.13;;;6.57;;
7049;SDS011;22263;52.260;10.548;2022-07-22T04:57:09;6.97;;;5.63;;
7049;SDS011;22263;52.260;10.548;2022-07-22T04:59:38;5.28;;;4.32;;
7049;SDS011;22263;52.260;10.548;2022-07-22T05:02:07;5.22;;;3.50;;
7049;SDS011;22263;52.260;10.548;2022-07-22T05:04:40;4.15;;;3.58;;
7049;SDS011;22263;52.260;10.548;2022-07-22T05:07:09;4.65;;;4.03;;
7049;SDS011;22263;52.260;10.548;2022-07-22T05:09:39;4.85;;;3.90;;
7049;SDS011;22263;52.260;10.548;2022-07-22T05:12:08;4.85;;;3.67;;
7049;SDS011;22263;52.260;10.548;2022-07-22T05:14:38;4.28;;;3.88;;
7049;SDS011;22263;52.260;10.548;2022-07-22T05:17:09;6.57;;;3.85;;
7049;SDS011;22263;52.260;10.548;2022-07-22T05:19:44;5.45;;;4.15;;
7049;SDS011;22263;52.260;10.548;2022-07-22T05:22:13;5.57;;;3.60;;
7049;SDS011;22263;52.260;10.548;2022-07-22T05:24:43;3.95;;;3.65;;
7049;SDS011;22263;52.260;10.548;2022-07-22T05:27:12;5.75;;;3.28;;
7049;SDS011;22263;52.260;10.548;2022-07-22T05:29:42;4.05;;;3.42;;
7049;SDS011;22263;52.260;10.548;2022-07-22T05:32:12;3.92;;;3.35;;
7049;SDS011;22263;52.260;10.548;2022-07-22T05:34:44;3.80;;;3.40;;
7049;SDS011;22263;52.260;10.548;2022-07-22T05:37:14;5.22;;;3.13;;
7049;SDS011;22263;52.260;10.548;2022-07-22T05:39:44;3.80;;;3.40;;
7049;SDS011;22263;52.260;10.548;2022-07-22T05:42:14;5.50;;;3.75;;
7049;SDS011;22263;52.260;10.548;2022-07-22T05:44:43;8.07;;;4.55;;
7049;SDS011;22263;52.260;10.548;2022-07-22T05:47:13;4.82;;;4.00;;
7049;SDS011;22263;52.260;10.548;2022-07-22T05:49:45;6.97;;;5.13;;
7049;SDS011;22263;52.260;10.548;2022-07-22T05:52:14;5.70;;;4.97;;
7049;SDS011;22263;52.260;10.548;2022-07-22T05:54:43;6.18;;;4.60;;
7049;SDS011;22263;52.260;10.548;2022-07-22T05:57:13;7.38;;;5.10;;
7049;SDS011;22263;52.260;10.548;2022-07-22T05:59:42;5.75;;;4.97;;
7049;SDS011;22263;52.260;10.548;2022-07-22T06:02:12;4.50;;;4.10;;
7049;SDS011;22263;52.260;10.548;2022-07-22T06:04:41;5.05;;;3.92;;
7049;SDS011;22263;52.260;10.548;2022-07-22T06:07:14;6.43;;;4.20;;
7049;SDS011;22263;52.260;10.548;2022-07-22T06:09:43;5.72;;;3.70;;
7049;SDS011;22263;52.260;10.548;2022-07-22T06:12:13;5.65;;;3.50;;
7049;SDS011;22263;52.260;10.548;2022-07-22T06:14:42;4.75;;;3.42;;
7049;SDS011;22263;52.260;10.548;2022-07-22T06:17:12;3.92;;;3.63;;
7049;SDS011;22263;52.260;10.548;2022-07-22T06:19:41;5.25;;;3.85;;
7049;SDS011;22263;52.260;10.548;2022-07-22T06:22:13;5.55;;;3.92;;
7049;SDS011;22263;52.260;10.548;2022-07-22T06:24:44;5.47;;;3.75;;
7049;SDS011;22263;52.260;10.548;2022-07-22T06:27:14;4.82;;;3.65;;
7049;SDS011;22263;52.260;10.548;2022-07-22T06:29:43;4.78;;;3.75;;
7049;SDS011;22263;52.260;10.548;2022-07-22T06:32:13;5.43;;;3.47;;
7049;SDS011;22263;52.260;10.548;2022-07-22T06:34:46;4.72;;;3.50;;
7049;SDS011;22263;52.260;10.548;2022-07-22T06:37:18;5.43;;;3.55;;
7049;SDS011;22263;52.260;10.548;2022-07-22T06:40:08;7.70;;;3.78;;
7049;SDS011;22263;52.260;10.548;2022-07-22T06:42:38;4.43;;;3.00;;
7049;SDS011;22263;52.260;10.548;2022-07-22T06:45:08;3.25;;;2.95;;
7049;SDS011;22263;52.260;10.548;2022-07-22T06:47:38;4.72;;;3.05;;
7049;SDS011;22263;52.260;10.548;2022-07-22T06:50:08;3.08;;;2.40;;
7049;SDS011;22263;52.260;10.548;2022-07-22T06:52:41;3.90;;;2.30;;
7049;SDS011;22263;52.260;10.548;2022-07-22T06:55:11;4.40;;;2.20;;
7049;SDS011;22263;52.260;10.548;2022-07-22T06:57:41;3.55;;;2.40;;
7049;SDS011;22263;52.260;10.548;2022-07-22T07:00:11;3.25;;;2.28;;
7049;SDS011;22263;52.260;10.548;2022-07-22T07:02:41;5.22;;;2.40;;
7049;SDS011;22263;52.260;10.548;2022-07-22T07:05:10;4.10;;;2.70;;
7049;SDS011;22263;52.260;10.548;2022-07-22T07:07:48;3.13;;;2.55;;
7049;SDS011;22263;52.260;10.548;2022-07-22T07:10:17;3.97;;;2.40;;
7049;SDS011;22263;52.260;10.548;2022-07-22T07:12:47;4.03;;;2.08;;
7049;SDS011;22263;52.260;10.548;2022-07-22T07:15:16;2.80;;;2.33;;
7049;SDS011;22263;52.260;10.548;2022-07-22T07:17:50;3.25;;;2.25;;
7049;SDS011;22263;52.260;10.548;2022-07-22T07:20:21;7.07;;;3.20;;
7049;SDS011;22263;52.260;10.548;2022-07-22T07:22:53;4.15;;;2.50;;
7049;SDS011;22263;52.260;10.548;2022-07-22T07:25:23;3.28;;;2.85;;
7049;SDS011;22263;52.260;10.548;2022-07-22T07:27:55;2.95;;;2.33;;
7049;SDS011;22263;52.260;10.548;2022-07-22T07:30:25;2.78;;;2.38;;
7049;SDS011;22263;52.260;10.548;2022-07-22T07:32:55;2.35;;;2.15;;
7049;SDS011;22263;52.260;10.548;2022-07-22T07:35:26;2.65;;;2.20;;
7049;SDS011;22263;52.260;10.548;2022-07-22T07:38:00;2.95;;;2.20;;
7049;SDS011;22263;52.260;10.548;2022-07-22T07:40:29;3.50;;;2.50;;
7049;SDS011;22263;52.260;10.548;2022-07-22T07:42:59;3.75;;;2.30;;
7049;SDS011;22263;52.260;10.548;2022-07-22T07:45:29;4.28;;;1.90;;
7049;SDS011;22263;52.260;10.548;2022-07-22T07:48:00;2.33;;;2.13;;
7049;SDS011;22263;52.260;10.548;2022-07-22T07:50:29;3.05;;;2.38;;
7049;SDS011;22263;52.260;10.548;2022-07-22T07:53:01;6.22;;;2.38;;
7049;SDS011;22263;52.260;10.548;2022-07-22T07:55:33;3.25;;;2.40;;
7049;SDS011;22263;52.260;10.548;2022-07-22T07:58:04;5.25;;;2.13;;
7049;SDS011;22263;52.260;10.548;2022-07-22T08:00:34;4.95;;;2.20;;
7049;SDS011;22263;52.260;10.548;2022-07-22T08:03:06;2.38;;;2.17;;
7049;SDS011;22263;52.260;10.548;2022-07-22T08:05:36;3.10;;;2.47;;
7049;SDS011;22263;52.260;10.548;2022-07-22T08:08:11;3.55;;;2.95;;
7049;SDS011;22263;52.260;10.548;2022-07-22T08:10:40;3.30;;;2.55;;
7049;SDS011;22263;52.260;10.548;2022-07-22T08:13:24;3.25;;;2.78;;
7049;SDS011;22263;52.260;10.548;2022-07-22T08:15:53;4.35;;;3.03;;
7049;SDS011;22263;52.260;10.548;2022-07-22T08:18:23;2.88;;;2.67;;
7049;SDS011;22263;52.260;10.548;2022-07-22T08:20:53;4.38;;;3.20;;
7049;SDS011;22263;52.260;10.548;2022-07-22T08:23:28;4.65;;;3.42;;
7049;SDS011;22263;52.260;10.548;2022-07-22T08:25:58;3.50;;;3.20;;
7049;SDS011;22263;52.260;10.548;2022-07-22T08:28:28;6.30;;;4.57;;
7049;SDS011;22263;52.260;10.548;2022-07-22T08:30:57;5.88;;;4.22;;
7049;SDS011;22263;52.260;10.548;2022-07-22T08:33:31;6.93;;;4.55;;
7049;SDS011;22263;52.260;10.548;2022-07-22T08:36:01;8.35;;;6.30;;
7049;SDS011;22263;52.260;10.548;2022-07-22T08:38:33;7.70;;;6.70;;
7049;SDS011;22263;52.260;10.548;2022-07-22T08:41:03;7.53;;;6.30;;
7049;SDS011;22263;52.260;10.548;2022-07-22T08:43:34;8.32;;;6.85;;
7049;SDS011;22263;52.260;10.548;2022-07-22T08:46:05;8.65;;;6.93;;
7049;SDS011;22263;52.260;10.548;2022-07-22T08:48:36;8.68;;;7.80;;
7049;SDS011;22263;52.260;10.548;2022-07-22T08:51:05;8.82;;;7.55;;
7049;SDS011;22263;52.260;10.548;2022-07-22T08:53:39;9.80;;;7.47;;
7049;SDS011;22263;52.260;10.548;2022-07-22T08:56:08;9.23;;;7.43;;
7049;SDS011;22263;52.260;10.548;2022-07-22T08:58:41;10.10;;;7.70;;
7049;SDS011;22263;52.260;10.548;2022-07-22T09:01:11;10.73;;;7.72;;
7049;SDS011;22263;52.260;10.548;2022-07-22T09:03:46;11.55;;;8.38;;
7049;SDS011;22263;52.260;10.548;2022-07-22T09:06:17;9.60;;;8.30;;
7049;SDS011;22263;52.260;10.548;2022-07-22T09:08:53;9.98;;;7.80;;
7049;SDS011;22263;52.260;10.548;2022-07-22T09:11:25;11.85;;;9.15;;
7049;SDS011;22263;52.260;10.548;2022-07-22T09:13:57;35.08;;;19.38;;
7049;SDS011;22263;52.260;10.548;2022-07-22T09:16:40;13.65;;;8.98;;
7049;SDS011;22263;52.260;10.548;2022-07-22T09:19:12;16.98;;;11.40;;
7049;SDS011;22263;52.260;10.548;2022-07-22T09:21:43;9.38;;;7.40;;
7049;SDS011;22263;52.260;10.548;2022-07-22T09:24:28;8.93;;;7.45;;
7049;SDS011;22263;52.260;10.548;2022-07-22T09:26:59;10.70;;;8.18;;
7049;SDS011;22263;52.260;10.548;2022-07-22T09:29:29;13.38;;;9.10;;
7049;SDS011;22263;52.260;10.548;2022-07-22T09:32:03;10.25;;;6.78;;
7049;SDS011;22263;52.260;10.548;2022-07-22T09:34:37;7.20;;;6.32;;
7049;SDS011;22263;52.260;10.548;2022-07-22T09:37:06;7.13;;;6.38;;
7049;SDS011;22263;52.260;10.548;2022-07-22T09:39:38;7.78;;;6.97;;
7049;SDS011;22263;52.260;10.548;2022-07-22T09:42:08;28.70;;;20.48;;
7049;SDS011;22263;52.260;10.548;2022-07-22T09:44:38;10.00;;;9.00;;
7049;SDS011;22263;52.260;10.548;2022-07-22T09:47:07;8.23;;;7.00;;
7049;SDS011;22263;52.260;10.548;2022-07-22T09:50:04;8.60;;;6.95;;
7049;SDS011;22263;52.260;10.548;2022-07-22T09:52:43;8.82;;;6.50;;
7049;SDS011;22263;52.260;10.548;2022-07-22T09:55:17;7.60;;;6.82;;
7049;SDS011;22263;52.260;10.548;2022-07-22T09:57:47;9.07;;;7.45;;
7049;SDS011;22263;52.260;10.548;2022-07-22T10:00:18;9.50;;;7.15;;
7049;SDS011;22263;52.260;10.548;2022-07-22T10:02:50;8.60;;;7.65;;
7049;SDS011;22263;52.260;10.548;2022-07-22T10:05:23;8.60;;;7.03;;
7049;SDS011;22263;52.260;10.548;2022-07-22T10:07:54;8.02;;;7.15;;
7049;SDS011;22263;52.260;10.548;2022-07-22T10:10:27;8.40;;;6.60;;
7049;SDS011;22263;52.260;10.548;2022-07-22T10:12:58;7.63;;;6.72;;
7049;SDS011;22263;52.260;10.548;2022-07-22T10:15:30;8.20;;;6.72;;
7049;SDS011;22263;52.260;10.548;2022-07-22T10:18:02;8.20;;;6.60;;
7049;SDS011;22263;52.260;10.548;2022-07-22T10:20:34;8.48;;;6.70;;
7049;SDS011;22263;52.260;10.548;2022-07-22T10:23:04;8.13;;;6.97;;
7049;SDS011;22263;52.260;10.548;2022-07-22T10:25:51;7.78;;;6.50;;
7049;SDS011;22263;52.260;10.548;2022-07-22T10:28:24;9.45;;;6.45;;
7049;SDS011;22263;52.260;10.548;2022-07-22T10:31:07;7.32;;;6.22;;
7049;SDS011;22263;52.260;10.548;2022-07-22T10:33:47;6.43;;;5.70;;
7049;SDS011;22263;52.260;10.548;2022-07-22T10:36:31;7.30;;;6.10;;
7049;SDS011;22263;52.260;10.548;2022-07-22T10:39:02;7.65;;;5.90;;
7049;SDS011;22263;52.260;10.548;2022-07-22T10:41:39;7.03;;;5.80;;
7049;SDS011;22263;52.260;10.548;2022-07-22T10:44:23;8.27;;;5.22;;
7049;SDS011;22263;52.260;10.548;2022-07-22T10:50:38;5.15;;;4.45;;
7049;SDS011;22263;52.260;10.548;2022-07-22T10:53:09;5.20;;;4.70;;
7049;SDS011;22263;52.260;10.548;2022-07-22T10:58:47;4.93;;;4.22;;
7049;SDS011;22263;52.260;10.548;2022-07-22T11:01:20;5.88;;;4.45;;
7049;SDS011;22263;52.260;10.548;2022-07-22T11:03:51;7.60;;;3.83;;
7049;SDS011;22263;52.260;10.548;2022-07-22T11:06:23;5.10;;;4.50;;
7049;SDS011;22263;52.260;10.548;2022-07-22T11:08:54;6.57;;;4.07;;
7049;SDS011;22263;52.260;10.548;2022-07-22T11:11:32;5.15;;;3.90;;
7049;SDS011;22263;52.260;10.548;2022-07-22T11:14:13;4.95;;;3.75;;
7049;SDS011;22263;52.260;10.548;2022-07-22T11:16:43;6.30;;;3.67;;
7049;SDS011;22263;52.260;10.548;2022-07-22T11:19:14;3.95;;;3.13;;
7049;SDS011;22263;52.260;10.548;2022-07-22T11:21:51;5.50;;;3.40;;
7049;SDS011;22263;52.260;10.548;2022-07-22T11:24:22;3.83;;;3.25;;
7049;SDS011;22263;52.260;10.548;2022-07-22T11:26:53;3.67;;;3.25;;
7049;SDS011;22263;52.260;10.548;2022-07-22T11:29:33;8.27;;;2.90;;
7049;SDS011;22263;52.260;10.548;2022-07-22T11:32:06;4.70;;;3.22;;
7049;SDS011;22263;52.260;10.548;2022-07-22T11:34:38;5.68;;;3.50;;
7049;SDS011;22263;52.260;10.548;2022-07-22T11:37:11;6.22;;;4.40;;
7049;SDS011;22263;52.260;10.548;2022-07-22T11:39:42;6.13;;;4.10;;
7049;SDS011;22263;52.260;10.548;2022-07-22T11:42:11;4.43;;;4.03;;
7049;SDS011;22263;52.260;10.548;2022-07-22T11:44:43;5.15;;;4.45;;
7049;SDS011;22263;52.260;10.548;2022-07-22T11:47:18;5.40;;;3.90;;
7049;SDS011;22263;52.260;10.548;2022-07-22T11:49:48;6.20;;;4.68;;
7049;SDS011;22263;52.260;10.548;2022-07-22T11:52:17;7.43;;;4.13;;
7049;SDS011;22263;52.260;10.548;2022-07-22T11:54:48;4.15;;;3.75;;
7049;SDS011;22263;52.260;10.548;2022-07-22T11:57:17;5.75;;;3.88;;
7049;SDS011;22263;52.260;10.548;2022-07-22T11:59:49;3.90;;;3.50;;
7049;SDS011;22263;52.260;10.548;2022-07-22T12:02:19;5.60;;;4.10;;
7049;SDS011;22263;52.260;10.548;2022-07-22T12:04:49;4.65;;;3.20;;
7049;SDS011;22263;52.260;10.548;2022-07-22T12:07:29;4.57;;;3.25;;
7049;SDS011;22263;52.260;10.548;2022-07-22T12:09:58;6.47;;;3.17;;
7049;SDS011;22263;52.260;10.548;2022-07-22T12:12:38;3.45;;;2.70;;
7049;SDS011;22263;52.260;10.548;2022-07-22T12:15:10;4.47;;;3.08;;
7049;SDS011;22263;52.260;10.548;2022-07-22T12:18:13;3.45;;;2.33;;
7049;SDS011;22263;52.260;10.548;2022-07-22T12:20:43;3.75;;;2.72;;
7049;SDS011;22263;52.260;10.548;2022-07-22T12:23:19;3.50;;;2.63;;
7049;SDS011;22263;52.260;10.548;2022-07-22T12:25:50;3.55;;;2.70;;
7049;SDS011;22263;52.260;10.548;2022-07-22T12:28:21;5.05;;;2.70;;
7049;SDS011;22263;52.260;10.548;2022-07-22T12:30:54;2.92;;;2.45;;
7049;SDS011;22263;52.260;10.548;2022-07-22T12:33:24;5.00;;;3.38;;
7049;SDS011;22263;52.260;10.548;2022-07-22T12:35:58;4.63;;;3.28;;
7049;SDS011;22263;52.260;10.548;2022-07-22T12:38:28;7.30;;;3.55;;
7049;SDS011;22263;52.260;10.548;2022-07-22T12:43:56;9.32;;;4.10;;
7049;SDS011;22263;52.260;10.548;2022-07-22T12:46:29;5.07;;;4.00;;
7049;SDS011;22263;52.260;10.548;2022-07-22T12:48:59;7.30;;;3.88;;
7049;SDS011;22263;52.260;10.548;2022-07-22T12:51:29;6.65;;;4.07;;
7049;SDS011;22263;52.260;10.548;2022-07-22T12:53:59;8.00;;;3.92;;
7049;SDS011;22263;52.260;10.548;2022-07-22T12:56:28;6.25;;;4.50;;
7049;SDS011;22263;52.260;10.548;2022-07-22T12:59:01;7.50;;;4.45;;
7049;SDS011;22263;52.260;10.548;2022-07-22T13:01:33;8.00;;;4.60;;
7049;SDS011;22263;52.260;10.548;2022-07-22T13:04:03;4.97;;;4.40;;
7049;SDS011;22263;52.260;10.548;2022-07-22T13:06:33;6.70;;;4.85;;
7049;SDS011;22263;52.260;10.548;2022-07-22T13:09:02;11.90;;;5.07;;
7049;SDS011;22263;52.260;10.548;2022-07-22T13:11:39;8.43;;;5.30;;
7049;SDS011;22263;52.260;10.548;2022-07-22T13:14:12;8.88;;;4.97;;
7049;SDS011;22263;52.260;10.548;2022-07-22T13:16:45;7.25;;;5.00;;
7049;SDS011;22263;52.260;10.548;2022-07-22T13:19:15;7.05;;;4.50;;
7049;SDS011;22263;52.260;10.548;2022-07-22T13:21:46;6.95;;;5.07;;
7049;SDS011;22263;52.260;10.548;2022-07-22T13:24:16;8.25;;;5.28;;
7049;SDS011;22263;52.260;10.548;2022-07-22T13:26:45;7.95;;;5.82;;
7049;SDS011;22263;52.260;10.548;2022-07-22T13:29:14;8.23;;;5.13;;
7049;SDS011;22263;52.260;10.548;2022-07-22T13:31:48;6.78;;;5.10;;
7049;SDS011;22263;52.260;10.548;2022-07-22T13:34:37;7.78;;;5.07;;
7049;SDS011;22263;52.260;10.548;2022-07-22T13:37:07;6.90;;;5.30;;
7049;SDS011;22263;52.260;10.548;2022-07-22T13:39:37;9.05;;;5.75;;
7049;SDS011;22263;52.260;10.548;2022-07-22T13:42:07;6.22;;;5.40;;
7049;SDS011;22263;52.260;10.548;2022-07-22T13:44:37;7.28;;;4.97;;
7049;SDS011;22263;52.260;10.548;2022-07-22T13:47:09;5.38;;;4.45;;
7049;SDS011;22263;52.260;10.548;2022-07-22T13:49:38;7.35;;;5.05;;
7049;SDS011;22263;52.260;10.548;2022-07-22T13:52:07;7.18;;;5.20;;
7049;SDS011;22263;52.260;10.548;2022-07-22T13:54:37;12.00;;;5.60;;
7049;SDS011;22263;52.260;10.548;2022-07-22T13:57:06;10.00;;;5.60;;
7049;SDS011;22263;52.260;10.548;2022-07-22T13:59:38;6.55;;;5.68;;
7049;SDS011;22263;52.260;10.548;2022-07-22T14:02:10;7.63;;;4.82;;
7049;SDS011;22263;52.260;10.548;2022-07-22T14:04:40;7.22;;;5.32;;
7049;SDS011;22263;52.260;10.548;2022-07-22T14:07:09;6.47;;;4.82;;
7049;SDS011;22263;52.260;10.548;2022-07-22T14:09:39;5.00;;;4.50;;
7049;SDS011;22263;52.260;10.548;2022-07-22T14:12:08;10.63;;;7.45;;
7049;SDS011;22263;52.260;10.548;2022-07-22T14:14:38;6.07;;;5.10;;
7049;SDS011;22263;52.260;10.548;2022-07-22T14:17:10;5.00;;;4.50;;
7049;SDS011;22263;52.260;10.548;2022-07-22T14:19:40;8.63;;;4.25;;
7049;SDS011;22263;52.260;10.548;2022-07-22T14:22:09;5.32;;;4.57;;
7049;SDS011;22263;52.260;10.548;2022-07-22T14:24:39;6.13;;;4.97;;
7049;SDS011;22263;52.260;10.548;2022-07-22T14:27:08;4.70;;;3.90;;
7049;SDS011;22263;52.260;10.548;2022-07-22T14:29:37;5.25;;;4.10;;
7049;SDS011;22263;52.260;10.548;2022-07-22T14:32:07;5.38;;;4.28;;
7049;SDS011;22263;52.260;10.548;2022-07-22T14:34:39;6.30;;;4.63;;
7049;SDS011;22263;52.260;10.548;2022-07-22T14:37:09;7.10;;;4.53;;
7049;SDS011;22263;52.260;10.548;2022-07-22T14:39:38;5.35;;;4.15;;
7049;SDS011;22263;52.260;10.548;2022-07-22T14:42:08;5.40;;;4.55;;
7049;SDS011;22263;52.260;10.548;2022-07-22T14:44:37;7.85;;;4.78;;
7049;SDS011;22263;52.260;10.548;2022-07-22T14:47:06;9.95;;;4.35;;
7049;SDS011;22263;52.260;10.548;2022-07-22T14:49:36;8.23;;;5.03;;
7049;SDS011;22263;52.260;10.548;2022-07-22T14:52:08;6.65;;;4.85;;
7049;SDS011;22263;52.260;10.548;2022-07-22T14:54:37;8.70;;;5.68;;
7049;SDS011;22263;52.260;10.548;2022-07-22T14:57:07;10.48;;;7.93;;
7049;SDS011;22263;52.260;10.548;2022-07-22T14:59:36;8.32;;;6.05;;
7049;SDS011;22263;52.260;10.548;2022-07-22T15:02:05;8.35;;;6.63;;
7049;SDS011;22263;52.260;10.548;2022-07-22T15:04:35;8.25;;;5.80;;
7049;SDS011;22263;52.260;10.548;2022-07-22T15:07:05;6.90;;;4.35;;
7049;SDS011;22263;52.260;10.548;2022-07-22T15:09:37;7.18;;;4.30;;
7049;SDS011;22263;52.260;10.548;2022-07-22T15:12:06;5.38;;;4.30;;
7049;SDS011;22263;52.260;10.548;2022-07-22T15:14:56;6.18;;;4.40;;
7049;SDS011;22263;52.260;10.548;2022-07-22T15:17:25;6.75;;;3.85;;
7049;SDS011;22263;52.260;10.548;2022-07-22T15:19:55;5.70;;;3.60;;